Time;durP1;ratioP1;P1;durP2;ratioP2;P2;SDS_P1;SDS_P2;PMS_P1;PMS_P2;Temp;Humidity;BMP_temperature;BMP_pressure;BME280_temperature;BME280_humidity;BME280_pressure;Samples;Min_cycle;Max_cycle;Signal;HPM_P1;HPM_P2
2022/06/04 00:01:22;;;;;;;7.40;2.72;;;15.80;55.50;;;;;;9185836;19;20364;-69
2022/06/04 00:04:27;;;;;;;3.80;2.13;;;15.80;55.70;;;;;;9184907;19;20022;-69
2022/06/04 00:07:32;;;;;;;6.00;2.63;;;15.70;55.70;;;;;;9186691;19;20376;-69
2022/06/04 00:17:17;;;;;;;7.28;2.67;;;15.60;56.20;;;;;;9180941;19;20024;-69
2022/06/04 00:20:23;;;;;;;9.38;2.70;;;15.50;56.30;;;;;;9184276;19;20026;-68
2022/06/04 00:23:29;;;;;;;5.93;2.50;;;15.50;56.40;;;;;;9185001;19;20019;-69
2022/06/04 00:26:34;;;;;;;6.28;2.63;;;15.40;56.60;;;;;;9185322;19;20010;-69
2022/06/04 00:29:39;;;;;;;6.78;2.97;;;15.30;56.80;;;;;;9188883;19;20025;-69
2022/06/04 00:32:47;;;;;;;10.35;3.20;;;15.30;56.90;;;;;;9186903;19;20033;-69
2022/06/04 00:35:55;;;;;;;18.88;4.07;;;15.30;57.20;;;;;;9188967;19;20014;-69
2022/06/04 00:39:01;;;;;;;9.18;3.97;;;15.20;57.20;;;;;;9188524;19;20364;-69
2022/06/04 00:42:11;;;;;;;9.95;3.45;;;15.20;57.30;;;;;;9181153;19;20325;-67
2022/06/04 00:46:01;;;;;;;6.93;3.22;;;15.10;57.50;;;;;;9184468;19;20037;-69
2022/06/04 00:49:09;;;;;;;12.50;3.50;;;15.10;57.90;;;;;;9180956;19;20029;-69
2022/06/04 00:52:18;;;;;;;6.13;3.50;;;15.00;57.70;;;;;;9180439;19;20015;-69
2022/06/04 00:55:24;;;;;;;8.27;3.45;;;15.00;57.90;;;;;;9181517;19;20357;-69
2022/06/04 00:58:41;;;;;;;11.45;4.13;;;14.90;57.90;;;;;;9179934;19;20011;-69
2022/06/04 01:01:55;;;;;;;8.98;3.67;;;14.90;58.30;;;;;;9177495;19;20038;-69
2022/06/04 01:05:16;;;;;;;6.75;3.50;;;14.90;58.30;;;;;;9178458;19;20022;-66
2022/06/04 01:08:42;;;;;;;7.93;3.85;;;14.80;58.60;;;;;;9178268;19;20022;-68
2022/06/04 01:12:14;;;;;;;6.70;3.90;;;14.70;58.60;;;;;;9181242;19;20019;-67
2022/06/04 01:15:39;;;;;;;6.40;3.90;;;14.80;58.70;;;;;;9176226;19;20021;-69
2022/06/04 01:18:55;;;;;;;10.70;4.07;;;14.70;58.80;;;;;;9178224;19;20054;-68
2022/06/04 01:22:19;;;;;;;7.55;3.28;;;14.70;58.90;;;;;;9177178;19;20026;-69
2022/06/04 01:25:38;;;;;;;11.07;3.77;;;14.60;59.10;;;;;;9181961;19;20983;-69
2022/06/04 01:28:50;;;;;;;11.85;4.03;;;14.60;59.20;;;;;;9179334;19;20018;-68
2022/06/04 01:32:05;;;;;;;7.63;3.70;;;14.50;59.20;;;;;;9181562;19;20015;-68
2022/06/04 01:35:17;;;;;;;11.90;3.92;;;14.50;59.40;;;;;;9181267;19;20034;-67
2022/06/04 01:38:29;;;;;;;8.85;4.38;;;14.50;59.50;;;;;;9180627;19;20022;-69
2022/06/04 01:41:38;;;;;;;11.75;4.20;;;14.50;59.60;;;;;;9179696;19;20025;-69
2022/06/04 01:44:48;;;;;;;10.05;4.05;;;14.50;59.60;;;;;;9176507;19;20038;-71
2022/06/04 01:47:55;;;;;;;10.90;4.30;;;14.40;59.80;;;;;;9179715;19;20010;-69
2022/06/04 01:51:03;;;;;;;12.93;4.00;;;14.40;59.80;;;;;;9179694;19;20010;-69
2022/06/04 01:54:14;;;;;;;12.73;4.72;;;14.40;60.00;;;;;;9179022;19;20022;-68
2022/06/04 01:57:24;;;;;;;9.23;4.20;;;14.30;60.10;;;;;;9180112;19;20356;-69
2022/06/04 02:00:36;;;;;;;10.00;3.80;;;14.30;60.20;;;;;;9176485;19;20018;-69
2022/06/04 02:03:44;;;;;;;12.88;3.90;;;14.30;60.40;;;;;;9179255;19;20019;-68
2022/06/04 02:10:27;;;;;;;13.10;4.07;;;14.20;60.50;;;;;;9180635;19;20021;-68
2022/06/04 02:13:33;;;;;;;9.32;4.00;;;14.20;60.60;;;;;;9178000;19;20018;-68
2022/06/04 02:16:44;;;;;;;9.98;4.10;;;14.20;60.60;;;;;;9172345;19;20019;-68
2022/06/04 02:19:50;;;;;;;15.50;4.68;;;14.10;60.80;;;;;;9176472;19;20018;-68
2022/06/04 02:22:56;;;;;;;9.30;3.70;;;14.10;60.80;;;;;;9175336;19;20022;-69
2022/06/04 02:26:01;;;;;;;9.63;4.10;;;14.10;61.00;;;;;;9178697;19;20491;-68
2022/06/04 02:29:07;;;;;;;14.70;4.40;;;14.00;60.90;;;;;;9177193;19;20029;-68
2022/06/04 02:32:26;;;;;;;8.52;3.88;;;14.00;61.10;;;;;;9176371;19;20022;-68
2022/06/04 02:35:37;;;;;;;7.97;4.05;;;14.00;61.50;;;;;;9176033;19;20026;-68
2022/06/04 02:38:48;;;;;;;8.48;4.35;;;14.00;61.30;;;;;;9178526;19;20021;-68
2022/06/04 02:41:59;;;;;;;13.10;4.40;;;14.00;61.40;;;;;;9174980;19;20046;-68
2022/06/04 02:45:09;;;;;;;9.82;4.40;;;13.90;61.40;;;;;;9175746;19;20025;-68
2022/06/04 02:48:23;;;;;;;10.65;4.28;;;13.90;61.50;;;;;;9177652;19;20028;-65
2022/06/04 02:51:32;;;;;;;5.70;3.93;;;13.90;61.60;;;;;;9175408;19;20029;-68
2022/06/04 02:54:45;;;;;;;10.45;4.82;;;13.90;61.50;;;;;;9175432;19;20491;-68
2022/06/04 02:57:52;;;;;;;9.93;4.70;;;13.90;61.70;;;;;;9176211;19;20021;-68
2022/06/04 03:01:00;;;;;;;11.27;4.45;;;13.90;61.70;;;;;;9176688;19;20065;-68
2022/06/04 03:04:09;;;;;;;13.02;4.38;;;13.90;61.80;;;;;;9178488;19;20023;-68
2022/06/04 03:07:14;;;;;;;10.75;4.75;;;13.90;61.90;;;;;;9176561;19;20014;-68
2022/06/04 03:10:23;;;;;;;13.60;5.28;;;13.90;61.90;;;;;;9177885;19;20018;-68
2022/06/04 03:13:29;;;;;;;11.55;4.38;;;13.80;62.60;;;;;;9177091;19;20068;-67
2022/06/04 03:16:36;;;;;;;16.25;4.63;;;13.80;62.00;;;;;;9172750;19;20021;-68
2022/06/04 03:19:44;;;;;;;15.45;4.43;;;13.80;62.10;;;;;;9176335;19;20015;-68
2022/06/04 03:22:49;;;;;;;10.85;4.70;;;13.80;62.20;;;;;;9173851;19;20025;-68
2022/06/04 03:25:54;;;;;;;11.45;4.93;;;13.80;62.10;;;;;;9174109;19;20509;-68
2022/06/04 03:28:59;;;;;;;11.18;4.88;;;13.80;62.20;;;;;;9177449;19;20033;-68
2022/06/04 03:32:05;;;;;;;13.65;4.78;;;13.70;62.20;;;;;;9182737;19;20015;-68
2022/06/04 03:35:14;;;;;;;14.23;4.68;;;13.70;62.30;;;;;;9186961;19;20026;-68
2022/06/04 03:38:19;;;;;;;9.23;4.95;;;13.70;62.50;;;;;;9182922;19;20018;-68
2022/06/04 03:41:24;;;;;;;11.68;4.70;;;13.70;62.50;;;;;;9183855;19;20487;-68
2022/06/04 03:44:29;;;;;;;7.45;4.32;;;13.70;62.60;;;;;;9182790;19;20006;-68
2022/06/04 03:47:36;;;;;;;13.90;5.00;;;13.70;62.70;;;;;;9183941;19;20374;-69
2022/06/04 03:50:44;;;;;;;10.30;4.20;;;13.60;62.70;;;;;;9184886;19;20026;-67
2022/06/04 03:53:49;;;;;;;13.98;5.13;;;13.60;62.80;;;;;;9184149;19;20391;-68
2022/06/04 03:57:37;;;;;;;10.75;5.03;;;13.60;62.80;;;;;;9184510;19;20484;-68
2022/06/04 04:00:23;;;;;;;11.20;5.40;;;13.60;62.90;;;;;;9184513;19;20018;-68
2022/06/04 04:03:28;;;;;;;10.68;4.88;;;13.60;63.00;;;;;;9180143;19;20022;-69
2022/06/04 04:06:37;;;;;;;10.60;5.60;;;13.60;63.10;;;;;;9184443;19;20023;-68
2022/06/04 04:09:42;;;;;;;13.82;4.90;;;13.50;63.20;;;;;;9184813;19;20014;-68
2022/06/04 04:12:50;;;;;;;15.32;5.78;;;13.50;63.20;;;;;;9178136;19;20377;-68
2022/06/04 04:15:56;;;;;;;8.50;5.07;;;13.50;63.30;;;;;;9180848;19;20381;-68
2022/06/04 04:19:01;;;;;;;13.30;4.75;;;13.50;63.40;;;;;;9182032;19;20014;-66
2022/06/04 04:22:09;;;;;;;14.10;5.38;;;13.50;63.40;;;;;;9181262;19;20022;-67
2022/06/04 04:25:16;;;;;;;13.23;5.60;;;13.50;63.70;;;;;;9184605;19;20038;-68
2022/06/04 04:28:21;;;;;;;10.07;4.85;;;13.50;63.70;;;;;;9183856;19;20134;-68
2022/06/04 04:31:26;;;;;;;8.40;4.90;;;13.50;63.70;;;;;;9180952;19;20499;-68
2022/06/04 04:34:32;;;;;;;11.10;4.88;;;13.50;63.80;;;;;;9180701;19;20011;-69
2022/06/04 04:37:39;;;;;;;12.25;5.30;;;13.50;63.80;;;;;;9183060;19;20003;-68
2022/06/04 04:40:45;;;;;;;15.77;5.35;;;13.50;64.00;;;;;;9182780;19;20025;-68
2022/06/04 04:43:52;;;;;;;9.90;5.20;;;13.50;64.00;;;;;;9179515;19;20030;-68
2022/06/04 04:46:58;;;;;;;16.88;5.22;;;13.50;64.10;;;;;;9184212;19;20014;-68
2022/06/04 04:50:03;;;;;;;12.57;5.53;;;13.50;64.10;;;;;;9184466;19;20397;-69
2022/06/04 04:53:14;;;;;;;11.02;5.45;;;13.50;64.20;;;;;;9181874;19;20018;-68
2022/06/04 04:56:21;;;;;;;10.68;5.78;;;13.50;64.50;;;;;;9181050;19;20086;-68
2022/06/04 04:59:26;;;;;;;9.95;5.30;;;13.50;65.00;;;;;;9183472;19;20038;-67
2022/06/04 05:02:31;;;;;;;16.48;6.45;;;13.60;64.50;;;;;;9181712;19;20029;-68
2022/06/04 05:05:37;;;;;;;14.43;6.00;;;13.60;64.50;;;;;;9180866;19;20022;-69
2022/06/04 05:08:45;;;;;;;11.85;5.68;;;13.60;64.50;;;;;;9180253;19;20392;-68
2022/06/04 05:11:50;;;;;;;17.85;6.55;;;13.60;64.70;;;;;;9182518;19;20006;-69
2022/06/04 05:14:55;;;;;;;16.60;6.00;;;13.60;64.70;;;;;;9175570;19;20689;-69
2022/06/04 05:18:00;;;;;;;14.00;5.97;;;13.60;64.70;;;;;;9179647;19;20025;-68
2022/06/04 05:21:13;;;;;;;15.07;6.45;;;13.70;64.90;;;;;;9179716;19;20364;-68
2022/06/04 05:24:24;;;;;;;14.52;5.38;;;13.70;65.10;;;;;;9179174;19;20104;-68
2022/06/04 05:27:29;;;;;;;26.83;6.13;;;13.70;65.10;;;;;;9181034;19;20136;-68
2022/06/04 05:30:34;;;;;;;11.45;5.72;;;13.80;65.10;;;;;;9178402;19;20017;-68
2022/06/04 05:33:40;;;;;;;9.50;5.70;;;13.80;64.50;;;;;;9180328;19;20420;-70
2022/06/04 05:36:46;;;;;;;13.13;6.28;;;13.90;65.20;;;;;;9183571;19;20392;-68
2022/06/04 05:39:53;;;;;;;11.23;6.15;;;14.00;65.30;;;;;;9183774;19;20022;-68
2022/06/04 05:42:58;;;;;;;13.52;6.07;;;14.10;65.40;;;;;;9184566;19;20018;-68
2022/06/04 05:46:06;;;;;;;10.13;5.72;;;14.20;65.30;;;;;;9183124;19;20402;-69
2022/06/04 05:49:12;;;;;;;11.27;5.88;;;14.30;65.30;;;;;;9182521;19;20011;-68
2022/06/04 05:52:17;;;;;;;12.02;5.35;;;14.40;65.30;;;;;;9181820;19;20014;-68
2022/06/04 05:55:26;;;;;;;13.40;5.20;;;14.50;65.30;;;;;;9183351;19;20499;-68
2022/06/04 05:58:31;;;;;;;11.35;4.88;;;14.60;65.30;;;;;;9183071;19;20018;-69
2022/06/04 06:01:38;;;;;;;12.38;5.35;;;14.70;65.20;;;;;;9182274;19;20022;-68
2022/06/04 06:04:43;;;;;;;12.77;5.55;;;14.80;65.20;;;;;;9181257;19;20471;-69
2022/06/04 06:07:48;;;;;;;10.93;5.18;;;14.90;65.10;;;;;;9180834;19;20025;-68
2022/06/04 06:10:56;;;;;;;10.88;5.28;;;15.00;65.10;;;;;;9184018;19;20039;-69
2022/06/04 06:14:01;;;;;;;13.48;5.30;;;15.10;65.20;;;;;;9182429;19;20022;-68
2022/06/04 06:17:07;;;;;;;7.95;4.35;;;15.20;65.10;;;;;;9177939;19;20018;-68
2022/06/04 06:20:13;;;;;;;13.32;5.13;;;15.30;65.00;;;;;;9182050;19;20086;-69
2022/06/04 06:23:18;;;;;;;9.40;4.88;;;15.40;65.00;;;;;;9183031;19;20011;-69
2022/06/04 06:26:28;;;;;;;9.23;4.78;;;15.50;64.90;;;;;;9180680;19;20496;-68
2022/06/04 06:29:34;;;;;;;10.10;4.80;;;15.70;64.90;;;;;;9182087;19;20030;-68
2022/06/04 06:32:40;;;;;;;9.70;4.88;;;15.80;64.80;;;;;;9183468;19;20083;-68
2022/06/04 06:35:45;;;;;;;11.18;5.75;;;15.90;64.70;;;;;;9181646;19;20013;-68
2022/06/04 06:38:51;;;;;;;12.50;5.22;;;16.00;64.60;;;;;;9180972;19;20019;-69
2022/06/04 06:41:58;;;;;;;13.10;5.60;;;16.10;64.50;;;;;;9181312;19;20025;-68
2022/06/04 06:45:18;;;;;;;10.45;5.25;;;16.20;64.50;;;;;;9179881;19;20097;-69
2022/06/04 06:48:23;;;;;;;10.55;4.85;;;16.30;64.40;;;;;;9183326;19;20321;-68
2022/06/04 06:51:31;;;;;;;12.90;5.22;;;16.40;64.30;;;;;;9180170;19;20017;-69
2022/06/04 06:54:38;;;;;;;8.32;4.75;;;16.60;64.90;;;;;;9182310;19;20022;-69
2022/06/04 06:57:46;;;;;;;14.32;4.93;;;16.60;64.30;;;;;;9180255;19;20847;-68
2022/06/04 07:00:51;;;;;;;7.35;4.22;;;16.80;64.20;;;;;;9182741;19;20014;-69
2022/06/04 07:04:04;;;;;;;9.13;4.55;;;16.90;64.10;;;;;;9178684;19;20018;-68
2022/06/04 07:07:09;;;;;;;9.68;4.13;;;17.00;64.00;;;;;;9178640;19;20021;-69
2022/06/04 07:10:14;;;;;;;13.25;4.50;;;17.20;63.80;;;;;;9180974;19;20014;-68
2022/06/04 07:13:22;;;;;;;8.55;4.72;;;17.30;63.80;;;;;;9181457;19;20011;-67
2022/06/04 07:16:28;;;;;;;10.88;4.85;;;17.40;63.60;;;;;;9175470;19;20022;-74
2022/06/04 07:19:33;;;;;;;12.50;4.60;;;17.40;63.40;;;;;;9181106;19;20014;-68
2022/06/04 07:22:38;;;;;;;9.68;4.43;;;17.50;63.30;;;;;;9177704;19;20018;-68
2022/06/04 07:25:45;;;;;;;11.07;4.13;;;17.60;63.20;;;;;;9175231;19;20033;-69
2022/06/04 07:28:53;;;;;;;10.27;4.53;;;17.70;63.10;;;;;;9180869;19;20025;-67
2022/06/04 07:31:58;;;;;;;7.50;4.25;;;17.80;63.10;;;;;;9179690;19;20016;-69
2022/06/04 07:35:03;;;;;;;6.03;3.90;;;17.90;62.90;;;;;;9178314;19;20019;-68
2022/06/04 07:38:09;;;;;;;7.45;4.10;;;18.00;62.90;;;;;;9178756;19;20014;-68
2022/06/04 07:41:19;;;;;;;8.82;4.22;;;18.10;62.80;;;;;;9180372;19;20015;-68
2022/06/04 07:44:28;;;;;;;10.82;4.07;;;18.20;62.70;;;;;;9178822;19;20010;-68
2022/06/04 07:47:34;;;;;;;11.27;4.15;;;18.40;62.60;;;;;;9179679;19;20023;-71
2022/06/04 07:50:42;;;;;;;9.32;4.18;;;18.40;62.30;;;;;;9179067;19;20022;-71
2022/06/04 07:53:47;;;;;;;8.05;4.32;;;18.60;62.30;;;;;;9178852;19;20022;-70
2022/06/04 07:56:54;;;;;;;9.73;4.13;;;18.70;62.20;;;;;;9178614;19;20018;-72
2022/06/04 08:00:02;;;;;;;9.95;3.67;;;18.80;62.10;;;;;;9170422;19;20149;-70
2022/06/04 08:03:16;;;;;;;9.43;4.07;;;18.90;62.00;;;;;;9174215;19;20898;-71
2022/06/04 08:06:23;;;;;;;8.70;3.92;;;19.00;61.80;;;;;;9172700;19;20082;-71
2022/06/04 08:09:28;;;;;;;10.80;4.00;;;19.00;61.60;;;;;;9173654;19;20010;-69
2022/06/04 08:12:34;;;;;;;8.25;3.90;;;19.10;61.50;;;;;;9170959;19;20356;-71
2022/06/04 08:15:42;;;;;;;9.32;4.25;;;19.10;61.30;;;;;;9171605;19;20747;-72
2022/06/04 08:18:48;;;;;;;10.07;4.47;;;19.20;61.30;;;;;;9180906;19;20018;-70
2022/06/04 08:21:55;;;;;;;7.93;3.90;;;19.30;61.20;;;;;;9181503;19;20018;-69
2022/06/04 08:25:00;;;;;;;11.00;3.95;;;19.40;61.10;;;;;;9174182;19;20348;-68
2022/06/04 08:28:05;;;;;;;8.32;3.60;;;19.50;61.00;;;;;;9184077;19;20018;-69
2022/06/04 08:31:15;;;;;;;7.43;3.60;;;19.60;60.80;;;;;;9175476;19;20019;-68
2022/06/04 08:34:21;;;;;;;7.30;3.80;;;19.70;60.60;;;;;;9182057;19;20025;-66
2022/06/04 08:37:26;;;;;;;13.70;3.75;;;19.80;60.60;;;;;;9182850;19;20010;-68
2022/06/04 08:40:40;;;;;;;7.47;3.60;;;19.90;60.40;;;;;;9180171;19;20030;-68
2022/06/04 08:43:49;;;;;;;;;;;20.10;60.30;;;;;;9181567;19;20018;-68
2022/06/04 08:47:02;;;;;;;6.28;3.60;;;20.20;60.40;;;;;;9178637;19;19926;-67
2022/06/04 08:50:15;;;;;;;8.43;3.80;;;20.30;60.10;;;;;;9172494;19;20018;-69
2022/06/04 08:53:24;;;;;;;5.47;3.70;;;20.40;59.90;;;;;;9173105;19;20582;-68
2022/06/04 08:59:58;;;;;;;6.28;3.08;;;20.70;59.70;;;;;;9173974;19;20029;-70
2022/06/04 09:03:14;;;;;;;6.13;3.22;;;20.90;59.50;;;;;;9174249;19;20014;-67
2022/06/04 09:06:31;;;;;;;6.90;3.15;;;21.00;59.10;;;;;;9172056;19;20794;-67
2022/06/04 09:09:41;;;;;;;8.95;3.38;;;21.20;59.00;;;;;;9175709;19;20039;-67
2022/06/04 09:12:50;;;;;;;8.05;3.53;;;21.30;58.90;;;;;;9173562;19;20421;-68
2022/06/04 09:15:59;;;;;;;6.97;3.22;;;21.50;58.70;;;;;;9172899;19;20494;-68
2022/06/04 09:19:15;;;;;;;6.15;3.28;;;21.70;58.60;;;;;;9173034;19;20015;-67
2022/06/04 09:22:23;;;;;;;7.45;3.40;;;21.80;58.20;;;;;;9174235;19;20019;-68
2022/06/04 09:25:37;;;;;;;8.93;3.83;;;22.00;58.20;;;;;;9172598;19;20487;-68
2022/06/04 09:28:55;;;;;;;5.30;3.37;;;22.20;58.00;;;;;;9171843;19;20046;-68
2022/06/04 09:32:08;;;;;;;7.88;3.35;;;22.30;57.60;;;;;;9174158;19;20011;-69
2022/06/04 09:35:18;;;;;;;11.23;4.00;;;22.50;57.60;;;;;;9176109;19;20025;-69
2022/06/04 09:38:26;;;;;;;7.40;3.53;;;22.60;57.40;;;;;;9172154;19;20420;-68
2022/06/04 09:41:33;;;;;;;7.90;3.53;;;22.80;57.30;;;;;;9172432;19;20018;-69
2022/06/04 09:44:50;;;;;;;6.75;3.53;;;22.90;57.20;;;;;;9177725;19;20019;-68
2022/06/04 09:47:58;;;;;;;5.78;3.85;;;23.00;57.10;;;;;;9173468;19;20014;-69
2022/06/04 09:51:08;;;;;;;8.60;3.70;;;23.20;57.00;;;;;;9176164;19;20867;-68
2022/06/04 09:54:24;;;;;;;6.78;3.58;;;23.20;56.60;;;;;;9172385;19;20089;-69
2022/06/04 09:57:31;;;;;;;7.57;3.63;;;23.40;56.50;;;;;;9174514;19;20503;-68
2022/06/04 10:00:38;;;;;;;8.05;3.70;;;23.50;56.40;;;;;;9176222;19;20019;-69
2022/06/04 10:03:45;;;;;;;6.10;3.80;;;23.60;56.20;;;;;;9176109;19;20372;-68
2022/06/04 10:06:53;;;;;;;7.32;3.47;;;23.70;56.00;;;;;;9175909;19;20022;-68
2022/06/04 10:09:58;;;;;;;9.27;4.15;;;23.80;55.90;;;;;;9180638;19;20118;-73
2022/06/04 10:16:51;;;;;;;9.35;3.97;;;24.00;55.40;;;;;;9178074;19;20105;-69
2022/06/04 10:19:57;;;;;;;7.25;3.42;;;24.10;55.50;;;;;;9175742;19;20090;-70
2022/06/04 10:23:14;;;;;;;6.35;3.63;;;24.20;55.30;;;;;;9169061;19;20053;-70
2022/06/04 10:26:42;;;;;;;6.15;3.38;;;24.20;55.00;;;;;;9173059;19;20018;-70
2022/06/04 10:30:16;;;;;;;7.32;3.50;;;24.30;54.80;;;;;;9176309;19;20024;-72
2022/06/04 10:33:30;;;;;;;8.23;3.95;;;24.40;54.60;;;;;;9176546;19;20018;-70
2022/06/04 10:36:53;;;;;;;6.10;3.50;;;24.50;54.50;;;;;;9179309;19;20021;-70
2022/06/04 10:40:26;;;;;;;8.97;3.60;;;24.50;54.30;;;;;;9178733;19;20010;-71
2022/06/04 10:43:47;;;;;;;8.40;3.70;;;24.60;54.90;;;;;;9178650;19;20090;-69
2022/06/04 10:47:04;;;;;;;7.28;3.45;;;24.70;54.30;;;;;;9170235;19;20021;-72
2022/06/04 10:51:25;;;;;;;5.63;3.05;;;24.70;54.10;;;;;;9170411;19;20022;-70
2022/06/04 10:54:11;;;;;;;8.60;3.40;;;24.80;53.80;;;;;;9172979;19;20014;-71
2022/06/04 10:57:26;;;;;;;10.80;3.10;;;24.90;53.80;;;;;;9170178;19;20014;-69
2022/06/04 11:00:37;;;;;;;4.75;3.00;;;25.00;54.20;;;;;;9172217;19;20026;-70
2022/06/04 11:03:51;;;;;;;5.53;3.30;;;25.10;53.60;;;;;;9172277;19;20101;-70
2022/06/04 11:07:02;;;;;;;6.30;3.33;;;25.20;53.20;;;;;;9170375;19;20467;-72
2022/06/04 11:10:09;;;;;;;11.93;3.15;;;25.30;53.10;;;;;;9171329;19;20015;-70
2022/06/04 11:13:20;;;;;;;5.03;2.60;;;25.40;53.00;;;;;;9172125;19;20018;-70
2022/06/04 11:16:29;;;;;;;8.43;3.38;;;25.40;52.80;;;;;;9174284;19;20460;-68
2022/06/04 11:19:41;;;;;;;5.78;3.05;;;25.50;52.80;;;;;;9174942;19;20018;-69
2022/06/04 11:22:56;;;;;;;6.32;3.55;;;25.60;52.50;;;;;;9173584;19;20022;-71
2022/06/04 11:26:06;;;;;;;5.60;2.70;;;25.60;52.20;;;;;;9173628;19;20022;-70
2022/06/04 11:29:16;;;;;;;5.78;3.28;;;25.70;52.30;;;;;;9176133;19;20019;-70
2022/06/04 11:32:31;;;;;;;8.43;3.28;;;25.70;52.10;;;;;;9171686;19;20025;-69
2022/06/04 11:35:44;;;;;;;5.85;2.88;;;25.80;51.90;;;;;;9175365;19;20381;-69
2022/06/04 11:39:17;;;;;;;9.07;3.00;;;25.80;51.70;;;;;;9175056;19;20348;-68
2022/06/04 11:42:35;;;;;;;9.17;3.10;;;25.80;51.50;;;;;;9175230;19;20037;-68
2022/06/04 11:46:00;;;;;;;7.80;3.45;;;25.80;51.60;;;;;;9175777;19;20014;-69
2022/06/04 11:49:19;;;;;;;;;;;25.80;51.30;;;;;;9175963;19;20090;-71
2022/06/04 11:52:28;;;;;;;8.95;2.92;;;25.80;52.10;;;;;;9183069;19;19922;-69
2022/06/04 11:55:40;;;;;;;6.47;3.05;;;25.80;51.80;;;;;;9183137;19;20014;-70
2022/06/04 11:59:05;;;;;;;4.03;2.35;;;25.80;51.50;;;;;;9184826;19;20367;-68
2022/06/04 12:02:21;;;;;;;6.60;3.00;;;25.90;51.30;;;;;;9184823;19;20018;-72
2022/06/04 12:05:39;;;;;;;7.72;3.72;;;25.90;51.40;;;;;;9187534;19;20014;-66
2022/06/04 12:08:47;;;;;;;6.10;2.92;;;25.90;51.10;;;;;;9185528;19;20074;-68
2022/06/04 12:12:00;;;;;;;4.90;2.95;;;25.90;51.20;;;;;;9187854;19;20081;-68
2022/06/04 12:15:17;;;;;;;7.65;3.75;;;26.00;51.10;;;;;;9188191;19;20018;-68
2022/06/04 12:18:33;;;;;;;7.20;3.22;;;26.00;50.90;;;;;;9184713;19;20369;-68
2022/06/04 12:25:01;;;;;;;5.53;2.70;;;26.00;51.30;;;;;;9182667;19;20472;-68
2022/06/04 12:28:25;;;;;;;9.20;2.85;;;26.00;50.70;;;;;;9181934;19;20052;-69
2022/06/04 12:31:38;;;;;;;7.50;3.05;;;26.00;50.40;;;;;;9185296;19;20022;-67
2022/06/04 12:34:48;;;;;;;5.57;2.80;;;26.00;50.50;;;;;;9183964;19;20018;-68
2022/06/04 12:37:58;;;;;;;9.00;2.95;;;26.00;50.60;;;;;;9184532;19;20025;-68
2022/06/04 12:41:12;;;;;;;4.85;2.60;;;26.10;50.50;;;;;;9187978;19;20015;-66
2022/06/04 12:44:23;;;;;;;5.05;3.22;;;26.10;50.40;;;;;;9186881;19;20022;-67
2022/06/04 12:47:30;;;;;;;4.45;2.55;;;26.10;50.90;;;;;;9184412;19;20436;-68
2022/06/04 12:50:41;;;;;;;5.93;2.80;;;26.10;50.30;;;;;;9187257;19;20464;-71
2022/06/04 12:53:55;;;;;;;5.30;2.85;;;26.10;50.30;;;;;;9186108;19;20029;-70
2022/06/04 12:57:21;;;;;;;11.25;3.10;;;26.20;50.20;;;;;;9184882;19;20022;-69
2022/06/04 13:00:30;;;;;;;3.17;2.70;;;26.10;50.10;;;;;;9186092;19;20045;-68
2022/06/04 13:03:38;;;;;;;7.20;3.20;;;26.10;50.00;;;;;;9187061;19;20035;-70
2022/06/04 13:06:51;;;;;;;5.57;3.25;;;26.10;50.60;;;;;;9184986;19;20019;-68
2022/06/04 13:10:01;;;;;;;4.90;2.72;;;26.10;49.80;;;;;;9186778;19;20416;-67
2022/06/04 13:13:16;;;;;;;8.80;3.33;;;26.10;49.90;;;;;;9186835;19;20037;-69
2022/06/04 13:16:24;;;;;;;4.35;3.10;;;26.00;49.70;;;;;;9186013;19;20021;-69
2022/06/04 13:20:08;;;;;;;5.25;3.20;;;26.00;49.90;;;;;;9184830;19;20048;-68
2022/06/04 13:23:34;;;;;;;5.80;2.90;;;26.00;49.80;;;;;;9185292;19;20472;-69
2022/06/04 13:26:44;;;;;;;5.60;3.10;;;26.00;49.80;;;;;;9182648;19;20015;-69
2022/06/04 13:29:58;;;;;;;5.20;2.90;;;26.10;49.80;;;;;;9185651;19;20687;-68
2022/06/04 13:33:14;;;;;;;5.47;2.83;;;26.10;49.60;;;;;;9184725;19;20431;-69
2022/06/04 13:36:22;;;;;;;4.53;3.00;;;26.20;49.60;;;;;;9185144;19;20472;-69
2022/06/04 13:39:31;;;;;;;6.18;2.80;;;26.20;49.70;;;;;;9186786;19;20050;-68
2022/06/04 13:42:39;;;;;;;6.63;2.67;;;26.30;49.60;;;;;;9181486;19;20011;-69
2022/06/04 13:45:44;;;;;;;6.35;3.17;;;26.30;49.60;;;;;;9183186;19;20015;-69
2022/06/04 13:48:59;;;;;;;5.68;2.83;;;26.30;49.50;;;;;;9185537;19;20015;-69
2022/06/04 13:52:12;;;;;;;5.85;2.75;;;26.30;49.40;;;;;;9183266;19;20037;-69
2022/06/04 13:55:32;;;;;;;8.57;2.70;;;26.30;49.30;;;;;;9185189;19;20034;-70
2022/06/04 13:58:40;;;;;;;12.73;2.88;;;26.30;49.10;;;;;;9183304;19;20368;-70
2022/06/04 14:01:45;;;;;;;5.60;2.95;;;26.30;49.20;;;;;;9182607;19;20014;-70
2022/06/04 14:08:11;;;;;;;7.22;2.65;;;26.30;49.20;;;;;;9182723;19;20022;-69
2022/06/04 14:11:33;;;;;;;6.13;3.13;;;26.30;49.30;;;;;;9182537;19;20010;-68
2022/06/04 14:14:57;;;;;;;7.72;3.20;;;26.30;49.10;;;;;;9182295;19;20030;-69
2022/06/04 14:18:17;;;;;;;;;;;26.30;49.20;;;;;;9183596;19;20028;-68
2022/06/04 14:21:36;;;;;;;9.65;2.80;;;26.30;49.50;;;;;;9180883;19;20341;-69
2022/06/04 14:24:54;;;;;;;4.80;2.60;;;26.30;49.40;;;;;;9177897;19;20011;-71
2022/06/04 14:28:14;;;;;;;7.88;2.83;;;26.30;49.30;;;;;;9182959;19;20018;-71
2022/06/04 14:31:35;;;;;;;4.43;2.78;;;26.30;49.20;;;;;;9183629;19;20006;-69
2022/06/04 14:34:44;;;;;;;7.25;3.15;;;26.30;49.10;;;;;;9181170;19;20030;-70
2022/06/04 14:37:51;;;;;;;6.07;3.50;;;26.20;49.10;;;;;;9182717;19;20021;-70
2022/06/04 14:41:03;;;;;;;5.63;2.80;;;26.20;49.10;;;;;;9183249;19;20010;-70
2022/06/04 14:44:36;;;;;;;6.80;2.83;;;26.30;49.10;;;;;;9181373;19;20014;-73
2022/06/04 14:48:14;;;;;;;6.75;2.80;;;26.20;49.10;;;;;;9180112;19;20479;-72
2022/06/04 14:51:40;;;;;;;6.70;3.28;;;26.20;49.00;;;;;;9179785;19;20009;-72
2022/06/04 14:54:47;;;;;;;7.03;2.90;;;26.20;49.00;;;;;;9180757;19;20010;-71
2022/06/04 14:58:37;;;;;;;8.68;2.78;;;26.20;49.10;;;;;;9181566;19;20346;-70
2022/06/04 15:02:03;;;;;;;6.38;2.25;;;26.10;49.00;;;;;;9181949;19;20014;-70
2022/06/04 15:05:27;;;;;;;4.95;2.90;;;26.20;49.10;;;;;;9181810;19;20026;-70
2022/06/04 15:09:02;;;;;;;4.07;2.92;;;26.20;49.10;;;;;;9177286;19;20018;-69
2022/06/04 15:12:24;;;;;;;5.80;2.55;;;26.10;49.10;;;;;;9178593;19;20482;-68
2022/06/04 15:15:43;;;;;;;3.85;2.78;;;26.10;49.10;;;;;;9178277;19;20463;-68
2022/06/04 15:19:08;;;;;;;6.47;2.95;;;26.10;49.10;;;;;;9174695;19;20053;-69
2022/06/04 15:22:27;;;;;;;7.68;3.17;;;26.10;49.00;;;;;;9177309;19;20360;-68
2022/06/04 15:25:44;;;;;;;7.80;3.22;;;26.00;48.90;;;;;;9171353;19;20479;-67
2022/06/04 15:35:49;;;;;;;7.50;2.80;;;26.00;49.00;;;;;;9173899;19;20040;-69
2022/06/04 15:39:05;;;;;;;5.82;3.30;;;26.00;48.90;;;;;;9171295;19;20035;-68
2022/06/04 15:42:22;;;;;;;6.28;2.85;;;25.90;48.90;;;;;;9174804;19;20021;-68
2022/06/04 15:45:31;;;;;;;5.78;3.15;;;25.90;48.80;;;;;;9174605;19;20014;-67
2022/06/04 15:48:43;;;;;;;9.20;3.85;;;25.80;48.80;;;;;;9171980;19;20018;-67
2022/06/04 15:55:26;;;;;;;6.00;2.85;;;25.80;48.90;;;;;;9169767;19;20018;-68
2022/06/04 15:58:47;;;;;;;10.25;3.10;;;25.70;48.80;;;;;;9172272;19;20018;-68
2022/06/04 16:01:55;;;;;;;6.38;3.30;;;25.70;48.80;;;;;;9172225;19;20018;-68
2022/06/04 16:05:04;;;;;;;6.03;3.50;;;25.60;48.90;;;;;;9172035;19;20021;-68
2022/06/04 16:08:20;;;;;;;4.25;2.63;;;25.60;48.90;;;;;;9168859;19;20052;-69
2022/06/04 16:11:37;;;;;;;5.93;3.03;;;25.50;48.90;;;;;;9172382;19;20019;-70
2022/06/04 16:15:12;;;;;;;6.57;3.17;;;25.50;49.00;;;;;;9169791;19;20022;-71
2022/06/04 16:18:29;;;;;;;9.98;3.17;;;25.50;49.00;;;;;;9170586;19;20018;-69
2022/06/04 16:21:44;;;;;;;5.65;3.08;;;25.40;49.00;;;;;;9174147;19;20021;-68
2022/06/04 16:25:11;;;;;;;4.43;2.42;;;25.40;48.90;;;;;;9172157;19;20014;-70
2022/06/04 16:28:19;;;;;;;5.20;2.58;;;25.40;49.00;;;;;;9172802;19;20382;-71
2022/06/04 16:31:28;;;;;;;6.20;2.70;;;25.40;49.10;;;;;;9175704;19;20010;-69
2022/06/04 16:34:53;;;;;;;7.18;3.30;;;25.30;49.00;;;;;;9174613;19;20045;-68
2022/06/04 16:38:13;;;;;;;5.78;2.20;;;25.40;49.00;;;;;;9177130;19;20018;-67
2022/06/04 16:44:53;;;;;;;3.72;2.35;;;25.30;49.00;;;;;;9182250;19;20511;-67
2022/06/04 16:48:03;;;;;;;5.75;2.40;;;25.30;49.00;;;;;;9182624;19;20014;-67
2022/06/04 16:51:10;;;;;;;5.53;2.60;;;25.30;49.10;;;;;;9185581;19;20023;-68
2022/06/04 16:54:15;;;;;;;6.13;2.45;;;25.20;49.10;;;;;;9182094;19;20014;-67
2022/06/04 16:57:23;;;;;;;3.67;2.42;;;25.20;49.10;;;;;;9173189;19;20025;-67
2022/06/04 17:00:33;;;;;;;3.40;2.40;;;25.20;49.10;;;;;;9181093;19;20025;-66
2022/06/04 17:03:46;;;;;;;4.95;2.17;;;25.10;49.10;;;;;;9180782;19;20448;-66
2022/06/04 17:06:57;;;;;;;4.63;2.05;;;25.10;49.20;;;;;;9182696;19;20097;-67
2022/06/04 17:10:20;;;;;;;13.07;2.40;;;25.00;49.20;;;;;;9177084;19;20052;-67